Time;durP1;ratioP1;P1;durP2;ratioP2;P2;SDS_P1;SDS_P2;PMS_P1;PMS_P2;Temp;Humidity;BMP_temperature;BMP_pressure;BME280_temperature;BME280_humidity;BME280_pressure;Samples;Min_cycle;Max_cycle;Signal;HPM_P1;HPM_P2
2022/07/15 00:00:17;;;;;;;3.22;0.60;;;14.00;99.90;;;;;;4965763;28;20054;-73
2022/07/15 00:02:42;;;;;;;7.35;0.60;;;13.90;99.90;;;;;;4967848;28;20034;-73
2022/07/15 00:05:09;;;;;;;3.00;0.70;;;13.90;99.90;;;;;;4963517;28;20747;-73
2022/07/15 00:07:35;;;;;;;7.07;0.77;;;13.70;99.90;;;;;;4966670;28;20174;-73
2022/07/15 00:10:20;;;;;;;6.07;0.50;;;13.70;99.90;;;;;;4964614;28;20394;-73
2022/07/15 00:12:55;;;;;;;4.43;0.55;;;13.60;99.90;;;;;;4966604;28;20062;-73
2022/07/15 00:15:23;;;;;;;8.00;0.60;;;13.50;99.90;;;;;;4967165;28;20023;-73
2022/07/15 00:17:49;;;;;;;6.35;1.23;;;13.40;99.90;;;;;;4967381;28;20035;-73
2022/07/15 00:20:15;;;;;;;5.53;0.93;;;13.40;99.90;;;;;;4966774;28;20034;-73
2022/07/15 00:22:43;;;;;;;5.28;0.50;;;13.30;99.90;;;;;;4966780;28;20070;-74
2022/07/15 00:25:09;;;;;;;5.85;0.57;;;13.30;99.90;;;;;;4967235;28;20034;-73
2022/07/15 00:27:36;;;;;;;9.60;1.25;;;13.30;99.90;;;;;;4968615;28;20086;-73
2022/07/15 00:30:02;;;;;;;6.10;1.15;;;13.20;99.90;;;;;;4968555;28;20138;-73
2022/07/15 00:32:28;;;;;;;7.00;0.77;;;13.20;99.90;;;;;;4966939;28;20123;-73
2022/07/15 00:34:54;;;;;;;6.53;0.70;;;13.10;99.90;;;;;;4968195;28;20500;-73
2022/07/15 00:37:20;;;;;;;4.03;0.60;;;13.10;99.90;;;;;;4968260;28;20057;-73
2022/07/15 00:39:46;;;;;;;2.97;0.52;;;13.10;99.90;;;;;;4967462;28;20530;-73
2022/07/15 00:42:43;;;;;;;8.27;1.35;;;13.00;99.90;;;;;;4966213;28;20039;-73
2022/07/15 00:44:59;;;;;;;4.65;0.90;;;13.00;99.90;;;;;;4968212;28;20489;-73
2022/07/15 00:47:24;;;;;;;6.28;0.77;;;13.00;99.90;;;;;;4963804;28;20435;-73
2022/07/15 00:49:50;;;;;;;7.53;0.95;;;13.00;99.90;;;;;;4964117;28;20032;-73
2022/07/15 00:52:18;;;;;;;3.70;0.60;;;13.10;99.90;;;;;;4968351;28;20038;-73
2022/07/15 00:54:46;;;;;;;2.45;0.50;;;13.00;99.90;;;;;;4972838;28;20030;-73
2022/07/15 00:57:14;;;;;;;8.85;0.85;;;13.00;99.90;;;;;;4973435;28;20483;-73
2022/07/15 00:59:40;;;;;;;6.88;0.70;;;12.90;99.90;;;;;;4973971;28;20050;-73
2022/07/15 01:02:06;;;;;;;5.60;0.65;;;12.90;99.90;;;;;;4973810;28;20061;-73
2022/07/15 01:04:32;;;;;;;7.20;0.60;;;12.80;99.90;;;;;;4974733;28;20048;-73
2022/07/15 01:06:58;;;;;;;6.40;0.70;;;12.80;99.90;;;;;;4972298;28;20023;-73
2022/07/15 01:09:23;;;;;;;6.25;0.55;;;12.70;99.90;;;;;;4972724;28;20031;-73
2022/07/15 01:11:49;;;;;;;11.07;1.80;;;12.70;99.90;;;;;;4973012;28;20037;-73
2022/07/15 01:14:15;;;;;;;5.85;0.82;;;12.70;99.90;;;;;;4970730;28;20039;-73
2022/07/15 01:16:41;;;;;;;6.43;1.08;;;12.60;99.90;;;;;;4971063;28;20697;-74
2022/07/15 01:19:06;;;;;;;6.00;0.80;;;12.60;99.90;;;;;;4971353;28;20049;-73
2022/07/15 01:21:32;;;;;;;7.90;0.80;;;12.50;99.90;;;;;;4973907;28;20026;-73
2022/07/15 01:23:57;;;;;;;3.85;0.40;;;12.50;99.90;;;;;;4971601;28;20035;-73
2022/07/15 01:26:23;;;;;;;5.00;0.50;;;12.50;99.90;;;;;;4969370;28;20062;-73
2022/07/15 01:28:48;;;;;;;4.80;0.85;;;12.40;99.90;;;;;;4972559;28;20478;-73
2022/07/15 01:31:14;;;;;;;3.38;0.50;;;12.40;99.90;;;;;;4969594;28;20110;-72
2022/07/15 01:33:39;;;;;;;4.13;0.75;;;12.40;99.90;;;;;;4970476;28;20121;-73
2022/07/15 01:36:06;;;;;;;3.45;0.40;;;12.30;99.90;;;;;;4972002;28;20057;-73
2022/07/15 01:38:31;;;;;;;4.40;0.50;;;12.30;99.90;;;;;;4968917;28;20031;-72
2022/07/15 01:40:58;;;;;;;4.57;0.40;;;12.30;99.90;;;;;;4970158;28;20038;-73
2022/07/15 01:43:23;;;;;;;4.18;0.55;;;12.30;99.90;;;;;;4971798;28;20026;-73
2022/07/15 01:45:49;;;;;;;3.85;0.80;;;12.30;99.90;;;;;;4972816;28;20026;-73
2022/07/15 01:51:01;;;;;;;6.93;0.80;;;12.20;99.90;;;;;;4972826;28;20062;-73
2022/07/15 01:53:28;;;;;;;4.47;0.65;;;12.30;99.90;;;;;;4970476;28;20065;-73
2022/07/15 01:55:53;;;;;;;7.63;0.50;;;12.30;99.90;;;;;;4974533;28;20113;-73
2022/07/15 01:58:19;;;;;;;7.70;0.65;;;12.30;99.90;;;;;;4973437;28;20566;-73
2022/07/15 02:00:45;;;;;;;4.05;0.70;;;12.40;99.90;;;;;;4971986;28;20046;-73
2022/07/15 02:03:11;;;;;;;3.63;0.50;;;12.40;99.90;;;;;;4971787;28;20027;-73
2022/07/15 02:05:36;;;;;;;3.90;0.50;;;12.40;99.90;;;;;;4966949;28;20027;-73
2022/07/15 02:08:03;;;;;;;9.10;0.82;;;12.40;99.90;;;;;;4968680;28;20023;-73
2022/07/15 02:10:39;;;;;;;3.25;0.40;;;12.40;99.90;;;;;;4969116;28;20033;-73
2022/07/15 02:13:09;;;;;;;4.93;0.50;;;12.50;99.90;;;;;;4968976;28;20061;-73
2022/07/15 02:15:35;;;;;;;4.82;0.60;;;12.50;99.90;;;;;;4968917;28;20058;-73
2022/07/15 02:18:01;;;;;;;5.13;0.50;;;12.60;99.90;;;;;;4968071;28;20491;-73
2022/07/15 02:20:27;;;;;;;9.93;0.90;;;12.70;99.90;;;;;;4966503;28;20435;-73
2022/07/15 02:22:57;;;;;;;6.20;0.68;;;12.80;99.90;;;;;;4969132;28;20019;-73
2022/07/15 02:25:26;;;;;;;7.18;0.82;;;12.80;99.90;;;;;;4967564;28;20484;-73
2022/07/15 02:27:56;;;;;;;5.82;0.70;;;12.90;99.90;;;;;;4966731;28;20042;-73
2022/07/15 02:30:25;;;;;;;4.07;0.52;;;12.90;99.90;;;;;;4968690;28;20829;-73
2022/07/15 02:32:51;;;;;;;3.45;0.77;;;13.00;99.90;;;;;;4969010;28;20398;-73
2022/07/15 02:35:17;;;;;;;6.53;0.90;;;13.00;99.90;;;;;;4965399;28;20030;-73
2022/07/15 02:37:44;;;;;;;7.03;0.60;;;13.00;99.90;;;;;;4968346;28;20026;-73
2022/07/15 02:40:10;;;;;;;4.10;0.70;;;13.00;99.90;;;;;;4967355;28;20043;-73
2022/07/15 02:42:36;;;;;;;4.10;0.85;;;13.10;99.90;;;;;;4968792;28;20439;-73
2022/07/15 02:45:02;;;;;;;5.03;0.70;;;13.00;99.90;;;;;;4967992;28;20031;-73
2022/07/15 02:47:27;;;;;;;8.00;0.90;;;13.00;99.90;;;;;;4966556;28;20120;-72
2022/07/15 02:49:53;;;;;;;3.75;0.63;;;13.00;99.90;;;;;;4967954;28;20035;-73
2022/07/15 02:52:18;;;;;;;7.75;0.93;;;12.90;99.90;;;;;;4968102;28;20033;-73
2022/07/15 02:54:44;;;;;;;7.15;1.63;;;12.90;99.90;;;;;;4967436;28;20039;-73
2022/07/15 02:57:10;;;;;;;4.60;0.80;;;12.80;99.90;;;;;;4968961;28;20552;-73
2022/07/15 02:59:35;;;;;;;6.25;0.70;;;12.80;99.90;;;;;;4967269;28;20166;-73
2022/07/15 03:02:01;;;;;;;4.00;0.70;;;12.70;99.90;;;;;;4966220;28;20054;-73
2022/07/15 03:04:27;;;;;;;5.82;1.10;;;12.70;99.90;;;;;;4967711;28;20502;-73
2022/07/15 03:06:52;;;;;;;10.07;1.15;;;12.60;99.90;;;;;;4969857;28;20105;-73
2022/07/15 03:09:18;;;;;;;5.20;1.00;;;12.60;99.90;;;;;;4967605;28;20042;-73
2022/07/15 03:11:43;;;;;;;10.75;1.10;;;12.60;99.90;;;;;;4968382;28;20041;-73
2022/07/15 03:14:09;;;;;;;4.82;1.23;;;12.60;99.90;;;;;;4967054;28;20034;-73
2022/07/15 03:16:35;;;;;;;6.47;1.08;;;12.60;99.90;;;;;;4968527;28;20519;-73
2022/07/15 03:19:00;;;;;;;6.38;1.88;;;12.60;99.90;;;;;;4968980;28;20487;-73
2022/07/15 03:21:26;;;;;;;7.75;1.75;;;12.60;99.90;;;;;;4966223;28;20062;-73
2022/07/15 03:23:51;;;;;;;6.70;1.70;;;12.60;99.90;;;;;;4968524;28;20390;-73
2022/07/15 03:26:17;;;;;;;7.07;1.17;;;12.60;99.90;;;;;;4965369;28;20483;-73
2022/07/15 03:28:44;;;;;;;6.93;1.40;;;12.60;99.90;;;;;;4966676;28;20058;-73
2022/07/15 03:31:09;;;;;;;10.18;1.35;;;12.70;99.90;;;;;;4966692;28;20051;-73
2022/07/15 03:33:35;;;;;;;3.35;1.13;;;12.70;99.90;;;;;;4968258;28;20124;-73
2022/07/15 03:36:01;;;;;;;10.02;1.75;;;12.80;99.90;;;;;;4966679;28;20086;-73
2022/07/15 03:38:26;;;;;;;10.68;1.70;;;12.80;99.90;;;;;;4968255;28;20715;-73
2022/07/15 03:40:52;;;;;;;9.75;1.95;;;12.80;99.90;;;;;;4966990;28;20034;-73
2022/07/15 03:43:18;;;;;;;13.65;2.45;;;12.80;99.90;;;;;;4968575;28;20035;-73
2022/07/15 03:45:43;;;;;;;7.03;1.67;;;12.80;99.90;;;;;;4962927;28;20042;-73
2022/07/15 03:48:09;;;;;;;7.38;1.40;;;12.80;99.90;;;;;;4968260;28;20517;-73
2022/07/15 03:50:35;;;;;;;8.27;1.60;;;12.90;99.90;;;;;;4968150;28;20026;-73
2022/07/15 03:53:01;;;;;;;8.63;1.80;;;12.90;99.90;;;;;;4968018;28;20545;-73
2022/07/15 03:55:26;;;;;;;7.10;1.35;;;12.90;99.90;;;;;;4965763;28;20038;-73
2022/07/15 03:57:52;;;;;;;13.60;1.98;;;12.90;99.90;;;;;;4967416;28;20038;-73
2022/07/15 04:00:17;;;;;;;9.65;2.38;;;12.90;99.90;;;;;;4964858;28;20054;-73
2022/07/15 04:02:43;;;;;;;8.05;1.65;;;13.00;99.90;;;;;;4964694;28;20035;-73
2022/07/15 04:05:09;;;;;;;10.07;2.10;;;13.00;99.90;;;;;;4967421;28;20046;-73
2022/07/15 04:07:34;;;;;;;8.18;1.98;;;13.10;99.90;;;;;;4968804;28;20022;-73
2022/07/15 04:10:00;;;;;;;11.27;2.22;;;13.10;99.90;;;;;;4969212;28;20062;-73
2022/07/15 04:12:25;;;;;;;7.50;2.33;;;13.10;99.90;;;;;;4966160;28;20033;-73
2022/07/15 04:14:51;;;;;;;7.05;2.03;;;13.10;99.90;;;;;;4969385;28;20026;-73
2022/07/15 04:17:17;;;;;;;8.95;2.08;;;13.10;99.90;;;;;;4966481;28;20026;-73
2022/07/15 04:19:42;;;;;;;8.68;2.03;;;13.10;99.90;;;;;;4969034;28;20444;-73
2022/07/15 04:22:08;;;;;;;10.52;2.67;;;13.10;99.90;;;;;;4963864;28;20035;-73
2022/07/15 04:24:34;;;;;;;9.98;2.10;;;13.10;99.90;;;;;;4968759;28;20097;-73
2022/07/15 04:26:59;;;;;;;10.50;1.85;;;13.20;99.90;;;;;;4968471;28;20065;-73
2022/07/15 04:29:25;;;;;;;6.57;2.17;;;13.10;99.90;;;;;;4968990;28;20355;-73
2022/07/15 04:31:50;;;;;;;7.53;2.17;;;13.20;99.90;;;;;;4966990;28;20022;-73
2022/07/15 04:34:16;;;;;;;10.38;2.08;;;13.20;99.90;;;;;;4968063;28;20035;-73
2022/07/15 04:36:41;;;;;;;9.43;1.60;;;13.20;99.90;;;;;;4966474;28;20027;-73
2022/07/15 04:39:07;;;;;;;9.55;2.25;;;13.30;99.90;;;;;;4968381;28;20501;-73
2022/07/15 04:41:32;;;;;;;9.98;2.13;;;13.30;99.90;;;;;;4964721;28;20034;-73
2022/07/15 04:43:58;;;;;;;7.28;1.85;;;13.40;99.90;;;;;;4967129;28;20030;-73
2022/07/15 04:46:24;;;;;;;11.10;1.70;;;13.50;99.90;;;;;;4966803;28;20035;-73
2022/07/15 04:51:33;;;;;;;5.65;1.80;;;13.50;99.90;;;;;;4966378;28;20041;-73
2022/07/15 04:53:59;;;;;;;8.52;1.73;;;13.60;99.90;;;;;;4964011;28;20487;-73
2022/07/15 04:56:24;;;;;;;11.20;2.22;;;13.60;99.90;;;;;;4964727;28;20027;-73
2022/07/15 04:58:50;;;;;;;10.25;1.77;;;13.70;99.90;;;;;;4964634;28;20039;-73
2022/07/15 05:01:15;;;;;;;9.38;1.80;;;13.80;99.90;;;;;;4965343;28;20030;-72
2022/07/15 05:03:42;;;;;;;9.65;1.85;;;13.90;99.90;;;;;;4967068;28;20033;-73
2022/07/15 05:06:07;;;;;;;6.38;1.20;;;14.10;99.90;;;;;;4964169;28;20031;-73
2022/07/15 05:08:34;;;;;;;10.55;1.50;;;14.40;99.90;;;;;;4965913;28;20051;-73
2022/07/15 05:11:00;;;;;;;4.78;1.00;;;14.80;99.90;;;;;;4964368;28;20039;-73
2022/07/15 05:13:26;;;;;;;7.40;1.20;;;15.30;99.90;;;;;;4968101;28;20027;-73
2022/07/15 05:15:51;;;;;;;6.82;1.50;;;15.70;99.90;;;;;;4967488;28;20830;-73
2022/07/15 05:18:17;;;;;;;7.75;1.15;;;16.10;99.90;;;;;;4958074;28;20067;-73
2022/07/15 05:20:42;;;;;;;5.47;1.05;;;16.50;99.90;;;;;;4966740;28;20031;-73
2022/07/15 05:23:08;;;;;;;11.63;1.30;;;16.80;99.90;;;;;;4962659;28;20509;-73
2022/07/15 05:25:33;;;;;;;6.32;1.13;;;17.30;99.90;;;;;;4964515;28;20053;-73
2022/07/15 05:27:59;;;;;;;6.18;0.90;;;17.60;99.90;;;;;;4963718;28;20035;-73
2022/07/15 05:30:24;;;;;;;4.57;1.20;;;17.80;99.90;;;;;;4961737;28;20055;-73
2022/07/15 05:32:50;;;;;;;7.47;0.75;;;18.00;99.90;;;;;;4967906;28;20035;-73
2022/07/15 05:35:16;;;;;;;5.57;1.00;;;18.20;99.90;;;;;;4965942;28;20035;-73
2022/07/15 05:37:42;;;;;;;5.20;0.82;;;18.40;99.90;;;;;;4965049;28;20027;-73
2022/07/15 05:40:08;;;;;;;7.85;0.93;;;18.60;99.90;;;;;;4966885;28;20043;-73
2022/07/15 05:42:34;;;;;;;4.63;0.85;;;18.70;99.90;;;;;;4969491;28;20033;-73
2022/07/15 05:45:00;;;;;;;6.00;0.88;;;18.60;99.90;;;;;;4969407;28;20035;-73
2022/07/15 05:47:26;;;;;;;4.40;1.00;;;18.70;99.90;;;;;;4963732;28;20155;-73
2022/07/15 05:49:52;;;;;;;4.63;0.98;;;18.70;99.90;;;;;;4969101;28;20034;-73
2022/07/15 05:52:18;;;;;;;3.60;0.80;;;18.70;99.90;;;;;;4970122;28;20037;-73
2022/07/15 05:54:43;;;;;;;6.05;1.13;;;18.50;99.90;;;;;;4971290;28;20392;-72
2022/07/15 05:57:09;;;;;;;5.97;1.05;;;18.30;99.90;;;;;;4963381;28;20919;-72
2022/07/15 05:59:34;;;;;;;4.72;0.93;;;18.20;99.90;;;;;;4969112;28;20051;-72
2022/07/15 06:02:00;;;;;;;8.68;1.10;;;18.20;99.90;;;;;;4971509;28;20014;-71
2022/07/15 06:04:27;;;;;;;4.38;1.08;;;18.10;99.90;;;;;;4968606;28;20034;-72
2022/07/15 06:06:53;;;;;;;6.55;0.82;;;18.10;99.90;;;;;;4967036;28;20019;-72
2022/07/15 06:09:19;;;;;;;8.18;0.80;;;18.00;99.90;;;;;;4965813;28;20031;-72
2022/07/15 06:11:45;;;;;;;5.57;1.30;;;18.00;99.90;;;;;;4968064;28;20120;-72
2022/07/15 06:14:10;;;;;;;7.05;0.85;;;17.80;99.90;;;;;;4967143;28;20440;-72
2022/07/15 06:16:36;;;;;;;18.42;1.63;;;17.70;99.90;;;;;;4966056;28;20181;-72
2022/07/15 06:19:01;;;;;;;5.95;0.80;;;17.80;99.90;;;;;;4966764;28;20066;-72
2022/07/15 06:21:27;;;;;;;5.18;0.80;;;17.80;99.90;;;;;;4970994;28;20081;-72
2022/07/15 06:23:53;;;;;;;6.30;1.27;;;17.80;99.90;;;;;;4968172;28;20038;-71
2022/07/15 06:26:18;;;;;;;5.63;0.70;;;17.90;99.90;;;;;;4963398;28;20023;-72
2022/07/15 06:28:44;;;;;;;6.75;1.15;;;17.90;99.90;;;;;;4966244;28;20027;-72
2022/07/15 06:31:09;;;;;;;4.70;0.68;;;18.00;99.90;;;;;;4962523;28;20064;-73
2022/07/15 06:33:35;;;;;;;7.18;1.35;;;17.90;99.90;;;;;;4961093;28;20035;-72
2022/07/15 06:36:00;;;;;;;11.18;1.35;;;18.00;99.90;;;;;;4970078;28;20069;-72
2022/07/15 06:38:27;;;;;;;4.65;0.63;;;17.90;99.90;;;;;;4965247;28;20035;-72
2022/07/15 06:40:53;;;;;;;4.32;0.70;;;17.70;99.90;;;;;;4967203;28;20137;-72
2022/07/15 06:43:19;;;;;;;7.57;0.60;;;17.70;99.90;;;;;;4962894;28;20461;-72
2022/07/15 06:45:44;;;;;;;7.00;0.60;;;17.80;99.90;;;;;;4966257;28;20043;-73
2022/07/15 06:48:10;;;;;;;5.10;0.65;;;17.90;99.90;;;;;;4967440;28;20383;-72
2022/07/15 06:50:35;;;;;;;5.90;1.00;;;18.00;99.90;;;;;;4966935;28;20025;-73
2022/07/15 06:53:02;;;;;;;7.95;0.88;;;18.10;99.90;;;;;;4965335;28;20035;-72
2022/07/15 06:55:27;;;;;;;11.60;0.90;;;18.20;99.90;;;;;;4968108;28;20101;-72
2022/07/15 06:57:54;;;;;;;4.53;0.30;;;18.30;99.90;;;;;;4967435;28;20486;-72
2022/07/15 07:00:19;;;;;;;5.57;0.40;;;18.30;99.90;;;;;;4968732;28;20527;-72
2022/07/15 07:02:46;;;;;;;5.35;0.63;;;18.30;99.90;;;;;;4967443;28;20038;-72
2022/07/15 07:05:11;;;;;;;3.08;0.30;;;18.40;99.90;;;;;;4960237;28;20031;-72
2022/07/15 07:07:37;;;;;;;2.85;0.28;;;18.40;99.90;;;;;;4964318;28;20031;-72
2022/07/15 07:10:03;;;;;;;5.80;0.40;;;18.50;99.90;;;;;;4967819;28;20553;-72
2022/07/15 07:12:28;;;;;;;4.50;0.50;;;18.60;99.90;;;;;;4968633;28;20134;-73
2022/07/15 07:14:54;;;;;;;2.45;0.40;;;18.60;99.90;;;;;;4968280;28;20101;-72
2022/07/15 07:17:20;;;;;;;6.30;0.40;;;18.60;99.90;;;;;;4969498;28;20037;-72
2022/07/15 07:19:45;;;;;;;8.35;1.17;;;18.60;99.90;;;;;;4969357;28;20030;-72
2022/07/15 07:22:11;;;;;;;3.25;0.30;;;18.60;99.70;;;;;;4969428;28;20034;-73
2022/07/15 07:24:37;;;;;;;6.82;0.40;;;18.60;99.70;;;;;;4969200;28;20093;-73
2022/07/15 07:27:03;;;;;;;4.00;0.68;;;18.60;99.80;;;;;;4968992;28;20275;-73
2022/07/15 07:29:28;;;;;;;3.17;0.30;;;18.60;99.80;;;;;;4967532;28;20039;-72
2022/07/15 07:31:54;;;;;;;5.32;0.55;;;18.60;99.40;;;;;;4963852;28;20026;-73
2022/07/15 07:34:19;;;;;;;4.68;0.50;;;18.60;99.30;;;;;;4962307;28;20050;-73
2022/07/15 07:36:46;;;;;;;5.85;0.68;;;18.60;99.20;;;;;;4962992;28;20027;-73
2022/07/15 07:39:13;;;;;;;7.43;0.47;;;18.70;99.20;;;;;;4961997;28;20054;-73
2022/07/15 07:41:38;;;;;;;4.75;0.65;;;18.80;99.20;;;;;;4967024;28;20031;-73
2022/07/15 07:44:05;;;;;;;3.60;0.50;;;18.90;99.30;;;;;;4960762;28;20045;-72
2022/07/15 07:46:31;;;;;;;3.65;0.30;;;19.20;99.00;;;;;;4963356;28;20154;-73
2022/07/15 07:48:56;;;;;;;5.97;0.60;;;19.40;98.40;;;;;;4962423;28;20117;-73
2022/07/15 07:51:22;;;;;;;3.72;0.70;;;19.50;98.00;;;;;;4963015;28;20078;-74
2022/07/15 07:53:47;;;;;;;3.35;0.40;;;19.50;97.50;;;;;;4962542;28;20539;-73
2022/07/15 07:56:13;;;;;;;4.35;0.80;;;19.40;97.30;;;;;;4962306;28;20035;-73
2022/07/15 07:58:39;;;;;;;3.83;0.32;;;19.50;97.20;;;;;;4963220;28;20038;-73
2022/07/15 08:01:05;;;;;;;3.45;0.50;;;19.60;96.60;;;;;;4960704;28;20163;-73
2022/07/15 08:03:30;;;;;;;3.17;0.40;;;19.80;96.40;;;;;;4961850;28;20073;-72
2022/07/15 08:05:56;;;;;;;3.83;0.35;;;19.90;96.40;;;;;;4961260;28;20110;-72
2022/07/15 08:08:23;;;;;;;3.40;0.47;;;20.10;96.30;;;;;;4961631;28;20031;-71
2022/07/15 08:10:51;;;;;;;3.88;0.40;;;20.30;96.00;;;;;;4961436;28;20026;-73
2022/07/15 08:13:18;;;;;;;5.80;0.47;;;20.40;95.20;;;;;;4959355;28;20491;-72
2022/07/15 08:15:44;;;;;;;3.22;0.30;;;20.20;94.90;;;;;;4962455;28;20042;-73
2022/07/15 08:18:10;;;;;;;5.05;0.40;;;20.00;95.20;;;;;;4961692;28;20038;-72
2022/07/15 08:20:36;;;;;;;4.43;0.40;;;19.90;95.10;;;;;;4963425;28;20038;-73
2022/07/15 08:23:03;;;;;;;4.32;0.30;;;20.10;94.80;;;;;;4961324;28;20047;-75
2022/07/15 08:25:32;;;;;;;2.72;0.30;;;20.20;94.00;;;;;;4963993;28;20105;-75
2022/07/15 08:27:59;;;;;;;2.85;0.30;;;20.30;93.50;;;;;;4962494;28;20039;-74
2022/07/15 08:30:26;;;;;;;1.85;0.20;;;20.30;93.30;;;;;;4965673;28;20027;-73
2022/07/15 08:32:51;;;;;;;2.53;0.40;;;20.20;93.30;;;;;;4961950;28;20027;-74
2022/07/15 08:35:17;;;;;;;2.78;0.30;;;20.20;93.30;;;;;;4959527;28;20572;-74
2022/07/15 08:37:42;;;;;;;3.83;0.70;;;20.30;93.10;;;;;;4961554;28;20029;-74
2022/07/15 08:40:09;;;;;;;3.33;0.30;;;20.40;92.70;;;;;;4962474;28;20053;-75
2022/07/15 08:42:37;;;;;;;2.83;0.32;;;20.30;92.50;;;;;;4965677;28;20030;-76
2022/07/15 08:45:03;;;;;;;2.03;0.45;;;20.40;92.00;;;;;;4962818;28;20022;-75
2022/07/15 08:47:32;;;;;;;2.85;0.20;;;20.40;91.50;;;;;;4961789;28;20053;-77
2022/07/15 08:49:58;;;;;;;3.50;0.30;;;20.50;91.00;;;;;;4961891;28;20022;-76
2022/07/15 08:52:25;;;;;;;3.58;0.40;;;20.40;90.80;;;;;;4961963;28;20072;-76
2022/07/15 08:54:51;;;;;;;2.33;0.20;;;20.50;90.90;;;;;;4961837;28;20058;-76
2022/07/15 08:57:17;;;;;;;3.45;0.30;;;20.60;90.90;;;;;;4960205;28;20134;-77
2022/07/15 08:59:45;;;;;;;2.38;0.50;;;20.70;90.60;;;;;;4960001;28;20089;-75
2022/07/15 09:02:12;;;;;;;5.10;0.20;;;20.70;89.80;;;;;;4960448;28;20033;-74
2022/07/15 09:05:16;;;;;;;3.63;0.20;;;20.70;88.90;;;;;;4965230;28;20027;-74
2022/07/15 09:08:01;;;;;;;3.70;0.20;;;20.90;88.90;;;;;;4959430;28;20114;-75
2022/07/15 09:10:51;;;;;;;3.30;0.30;;;20.90;87.80;;;;;;4961344;28;20526;-74
2022/07/15 09:13:43;;;;;;;3.88;0.30;;;20.90;86.80;;;;;;4946454;28;20054;-74
2022/07/15 09:16:19;;;;;;;3.17;0.30;;;20.70;85.50;;;;;;4961001;28;20043;-75
2022/07/15 09:18:46;;;;;;;1.38;0.20;;;20.50;86.50;;;;;;4965054;28;20051;-75
2022/07/15 09:21:20;;;;;;;2.58;0.30;;;20.60;86.50;;;;;;4965122;28;20094;-75
2022/07/15 09:23:46;;;;;;;3.92;0.28;;;20.90;85.60;;;;;;4966462;28;20478;-75
2022/07/15 09:26:32;;;;;;;1.70;0.22;;;21.00;85.70;;;;;;4966821;28;20041;-76
2022/07/15 09:28:59;;;;;;;2.40;0.30;;;21.20;85.50;;;;;;4966996;28;20031;-75
2022/07/15 09:34:18;;;;;;;3.53;0.20;;;21.30;84.40;;;;;;4965570;28;20046;-75
2022/07/15 09:36:52;;;;;;;1.33;0.17;;;21.10;84.10;;;;;;4964752;28;20038;-75
2022/07/15 09:39:19;;;;;;;4.75;0.40;;;20.90;85.00;;;;;;4962008;28;21057;-75
2022/07/15 09:41:45;;;;;;;4.65;0.30;;;21.10;84.50;;;;;;4963099;28;20069;-75
2022/07/15 09:44:25;;;;;;;3.33;0.20;;;21.10;84.30;;;;;;4963250;28;20093;-75
2022/07/15 09:46:53;;;;;;;2.47;0.28;;;21.20;83.30;;;;;;4977940;28;20555;-75
2022/07/15 09:49:25;;;;;;;3.35;0.20;;;21.30;81.50;;;;;;4983742;28;20392;-75
2022/07/15 09:51:56;;;;;;;2.53;0.20;;;21.40;81.30;;;;;;4971301;28;20031;-75
2022/07/15 09:54:30;;;;;;;1.73;0.20;;;21.50;81.00;;;;;;4966913;28;20414;-75
2022/07/15 09:56:57;;;;;;;4.90;0.40;;;21.50;81.10;;;;;;4975233;28;20027;-75
2022/07/15 09:59:24;;;;;;;3.22;0.20;;;21.60;81.20;;;;;;4971757;28;20161;-75
2022/07/15 10:01:50;;;;;;;4.40;0.10;;;21.80;80.60;;;;;;4972754;28;20074;-75
2022/07/15 10:04:18;;;;;;;1.63;0.20;;;22.00;79.40;;;;;;4972315;28;20062;-75
2022/07/15 10:06:44;;;;;;;2.47;0.20;;;22.00;78.40;;;;;;4975004;28;20038;-75
2022/07/15 10:09:10;;;;;;;2.55;0.20;;;22.00;77.70;;;;;;4969940;28;20034;-75
2022/07/15 10:11:41;;;;;;;3.45;0.20;;;22.10;77.30;;;;;;4973868;28;20019;-75
2022/07/15 10:14:21;;;;;;;2.13;0.30;;;22.20;77.30;;;;;;4966706;28;20659;-75
2022/07/15 10:16:55;;;;;;;2.28;0.60;;;22.30;76.20;;;;;;4967945;28;20364;-75
2022/07/15 10:19:24;;;;;;;2.15;0.20;;;22.20;76.20;;;;;;4974272;28;20403;-75
2022/07/15 10:21:56;;;;;;;1.55;0.20;;;22.10;76.00;;;;;;4975256;28;20026;-76
2022/07/15 10:24:49;;;;;;;2.28;0.22;;;22.20;75.60;;;;;;4972434;28;20039;-75
2022/07/15 10:27:44;;;;;;;1.63;0.20;;;22.20;75.10;;;;;;4969694;28;20082;-76
2022/07/15 10:30:09;;;;;;;2.83;0.30;;;22.50;74.20;;;;;;4974889;28;20058;-75
2022/07/15 10:33:07;;;;;;;3.75;0.20;;;22.70;73.50;;;;;;4975288;28;20061;-75
2022/07/15 10:35:34;;;;;;;3.72;0.20;;;22.90;73.30;;;;;;4965452;28;20082;-75
2022/07/15 10:38:32;;;;;;;3.38;0.45;;;23.00;72.90;;;;;;4962400;28;20037;-75
2022/07/15 10:41:11;;;;;;;4.18;0.20;;;23.10;72.80;;;;;;4983087;28;20039;-75
2022/07/15 10:43:54;;;;;;;1.15;0.10;;;23.30;72.10;;;;;;4973859;28;20055;-75
2022/07/15 10:46:21;;;;;;;;;;;23.20;71.00;;;;;;4965867;28;20027;-77
2022/07/15 10:48:51;;;;;;;2.28;0.10;;;23.20;72.00;;;;;;4981698;28;19909;-76
2022/07/15 10:51:46;;;;;;;1.98;0.20;;;23.40;71.70;;;;;;4975158;28;20484;-76
2022/07/15 10:54:17;;;;;;;2.80;0.20;;;23.50;70.20;;;;;;4950753;28;20039;-75
2022/07/15 10:56:48;;;;;;;2.92;0.20;;;23.40;69.90;;;;;;4968749;28;20498;-77
2022/07/15 10:59:26;;;;;;;3.05;0.30;;;23.40;70.10;;;;;;4970117;28;20059;-77
2022/07/15 11:02:04;;;;;;;3.38;0.43;;;23.50;70.80;;;;;;4973894;28;20027;-74
2022/07/15 11:04:31;;;;;;;2.10;0.20;;;23.70;70.30;;;;;;4971593;28;20101;-76
2022/07/15 11:07:02;;;;;;;2.92;0.30;;;23.80;69.90;;;;;;4974350;28;20027;-75
2022/07/15 11:09:47;;;;;;;3.13;0.20;;;23.90;68.70;;;;;;4968693;28;20364;-76
2022/07/15 11:12:13;;;;;;;2.53;0.40;;;23.90;67.80;;;;;;4969173;28;20491;-76
2022/07/15 11:14:53;;;;;;;2.17;0.10;;;23.90;67.70;;;;;;4962225;28;20034;-77
2022/07/15 11:17:27;;;;;;;4.18;0.40;;;23.90;67.30;;;;;;4970045;28;20054;-76
2022/07/15 11:19:55;;;;;;;1.80;0.10;;;24.00;67.60;;;;;;4970128;28;20038;-76
2022/07/15 11:22:24;;;;;;;3.85;0.30;;;24.00;66.30;;;;;;4971423;28;20023;-76
2022/07/15 11:24:50;;;;;;;2.33;0.20;;;23.80;66.20;;;;;;4973304;28;20031;-75
2022/07/15 11:27:16;;;;;;;1.83;0.13;;;23.80;66.60;;;;;;4972592;28;20027;-74
2022/07/15 11:29:51;;;;;;;2.42;0.20;;;23.90;66.70;;;;;;4971178;28;20023;-74
2022/07/15 11:34:55;;;;;;;1.83;0.20;;;24.30;66.60;;;;;;4991596;23;20105;-75
2022/07/15 11:37:28;;;;;;;2.40;0.10;;;24.30;65.50;;;;;;4985358;28;20049;-76
2022/07/15 11:44:29;;;;;;;1.85;0.20;;;24.40;64.90;;;;;;4992526;28;20057;-76
2022/07/15 11:45:56;;;;;;;1.58;0.20;;;24.20;64.30;;;;;;4987641;28;20127;-76
2022/07/15 11:48:21;;;;;;;2.17;0.13;;;24.20;64.20;;;;;;4988011;28;20062;-75
2022/07/15 11:50:52;;;;;;;1.70;0.20;;;24.20;64.00;;;;;;4985330;28;20061;-75
2022/07/15 11:53:18;;;;;;;1.17;0.10;;;24.10;64.00;;;;;;4991626;28;20496;-76
2022/07/15 11:55:53;;;;;;;1.95;0.10;;;24.20;63.80;;;;;;4981838;28;20114;-76
2022/07/15 11:58:52;;;;;;;0.73;0.10;;;24.20;64.00;;;;;;4977237;28;20030;-76
2022/07/15 12:01:21;;;;;;;2.55;0.20;;;24.40;63.30;;;;;;4989287;28;20072;-77
2022/07/15 12:03:49;;;;;;;3.03;0.10;;;24.70;62.80;;;;;;4991152;28;20080;-76
2022/07/15 12:06:19;;;;;;;1.98;0.10;;;24.70;62.70;;;;;;4991552;28;20484;-76
2022/07/15 12:08:56;;;;;;;3.88;0.20;;;24.60;63.00;;;;;;4992889;28;20041;-75
2022/07/15 12:11:25;;;;;;;2.00;0.20;;;24.40;63.20;;;;;;4990445;28;20583;-76
2022/07/15 12:14:02;;;;;;;2.03;0.20;;;24.20;63.70;;;;;;4992347;28;20045;-76
2022/07/15 12:16:32;;;;;;;0.65;0.10;;;24.30;63.90;;;;;;4990840;28;20023;-76
2022/07/15 12:19:01;;;;;;;1.40;0.20;;;24.50;63.70;;;;;;4988142;28;20026;-76
2022/07/15 12:21:27;;;;;;;1.02;0.10;;;24.90;62.80;;;;;;4988251;28;20065;-76
2022/07/15 12:24:19;;;;;;;1.10;0.10;;;25.10;61.10;;;;;;4988808;28;20262;-76
2022/07/15 12:26:50;;;;;;;1.58;0.10;;;25.10;60.90;;;;;;4991866;28;20076;-77
2022/07/15 12:29:22;;;;;;;1.77;0.15;;;25.20;60.60;;;;;;4990735;28;20038;-76
2022/07/15 12:32:09;;;;;;;1.02;0.10;;;25.20;59.90;;;;;;4991058;28;20034;-76
2022/07/15 12:34:52;;;;;;;0.65;0.10;;;25.00;59.90;;;;;;4990285;28;20050;-76
2022/07/15 12:37:23;;;;;;;2.20;0.20;;;24.90;60.30;;;;;;4988830;28;20026;-76
2022/07/15 12:40:02;;;;;;;21.50;0.77;;;24.70;60.10;;;;;;4990272;28;20038;-76
2022/07/15 12:42:32;;;;;;;4.25;0.10;;;24.50;60.80;;;;;;4991622;28;20041;-76
2022/07/15 12:45:21;;;;;;;1.58;0.10;;;24.30;61.30;;;;;;4990506;28;20478;-76
2022/07/15 12:48:06;;;;;;;1.73;0.10;;;24.20;61.70;;;;;;4979055;28;20034;-76
2022/07/15 12:50:36;;;;;;;0.50;0.10;;;24.20;61.70;;;;;;4990289;28;20085;-76
2022/07/15 12:53:03;;;;;;;1.75;0.10;;;24.10;62.20;;;;;;4989981;28;20061;-75
2022/07/15 12:55:31;;;;;;;1.38;0.10;;;24.00;62.60;;;;;;4990394;28;20442;-76
2022/07/15 12:58:06;;;;;;;1.30;0.10;;;23.90;63.00;;;;;;4992280;28;20451;-76
2022/07/15 13:00:32;;;;;;;2.78;0.13;;;23.60;63.10;;;;;;4989384;28;20569;-76
2022/07/15 13:03:22;;;;;;;0.70;0.10;;;23.50;63.80;;;;;;4988431;28;20053;-76
2022/07/15 13:05:52;;;;;;;3.53;0.10;;;23.50;64.50;;;;;;4973745;28;20031;-76